sensor_id;sensor_type;location;lat;lon;timestamp;P1;durP1;ratioP1;P2;durP2;ratioP2
71941;SDS011;59997;53.300;-6.260;2023-11-19T00:00:25;26.33;;;2.50;;
71941;SDS011;59997;53.300;-6.260;2023-11-19T00:02:51;15.85;;;1.83;;
71941;SDS011;59997;53.300;-6.260;2023-11-19T00:05:16;18.53;;;2.20;;
71941;SDS011;59997;53.300;-6.260;2023-11-19T00:07:42;16.48;;;1.80;;
71941;SDS011;59997;53.300;-6.260;2023-11-19T00:10:11;12.30;;;1.47;;
71941;SDS011;59997;53.300;-6.260;2023-11-19T00:12:38;15.80;;;2.05;;
71941;SDS011;59997;53.300;-6.260;2023-11-19T00:15:09;16.52;;;2.13;;
71941;SDS011;59997;53.300;-6.260;2023-11-19T00:17:39;18.97;;;2.07;;
71941;SDS011;59997;53.300;-6.260;2023-11-19T00:20:12;18.13;;;1.92;;
71941;SDS011;59997;53.300;-6.260;2023-11-19T00:22:39;17.75;;;2.10;;
71941;SDS011;59997;53.300;-6.260;2023-11-19T00:25:05;16.42;;;1.67;;
71941;SDS011;59997;53.300;-6.260;2023-11-19T00:27:31;19.40;;;1.50;;
71941;SDS011;59997;53.300;-6.260;2023-11-19T00:29:57;15.77;;;1.67;;
71941;SDS011;59997;53.300;-6.260;2023-11-19T00:32:22;18.23;;;2.37;;
71941;SDS011;59997;53.300;-6.260;2023-11-19T00:34:48;15.27;;;2.10;;
71941;SDS011;59997;53.300;-6.260;2023-11-19T00:37:14;20.07;;;2.30;;
71941;SDS011;59997;53.300;-6.260;2023-11-19T00:39:43;15.65;;;2.22;;
71941;SDS011;59997;53.300;-6.260;2023-11-19T00:42:09;21.47;;;2.53;;
71941;SDS011;59997;53.300;-6.260;2023-11-19T00:44:35;23.27;;;2.17;;
71941;SDS011;59997;53.300;-6.260;2023-11-19T00:47:01;19.75;;;2.25;;
71941;SDS011;59997;53.300;-6.260;2023-11-19T00:49:26;16.27;;;1.70;;
71941;SDS011;59997;53.300;-6.260;2023-11-19T00:51:52;14.30;;;1.37;;
71941;SDS011;59997;53.300;-6.260;2023-11-19T00:54:17;15.30;;;1.77;;
71941;SDS011;59997;53.300;-6.260;2023-11-19T00:56:43;15.90;;;1.60;;
71941;SDS011;59997;53.300;-6.260;2023-11-19T00:59:10;17.33;;;2.17;;
71941;SDS011;59997;53.300;-6.260;2023-11-19T01:01:35;17.20;;;1.50;;
71941;SDS011;59997;53.300;-6.260;2023-11-19T01:04:01;10.77;;;1.20;;
71941;SDS011;59997;53.300;-6.260;2023-11-19T01:06:30;14.90;;;1.55;;
71941;SDS011;59997;53.300;-6.260;2023-11-19T01:08:56;13.97;;;1.60;;
71941;SDS011;59997;53.300;-6.260;2023-11-19T01:11:25;12.73;;;1.90;;
71941;SDS011;59997;53.300;-6.260;2023-11-19T01:13:51;16.88;;;1.95;;
71941;SDS011;59997;53.300;-6.260;2023-11-19T01:16:17;9.40;;;1.17;;
71941;SDS011;59997;53.300;-6.260;2023-11-19T01:18:44;15.73;;;1.92;;
71941;SDS011;59997;53.300;-6.260;2023-11-19T01:21:10;15.80;;;1.50;;
71941;SDS011;59997;53.300;-6.260;2023-11-19T01:23:35;13.52;;;2.05;;
71941;SDS011;59997;53.300;-6.260;2023-11-19T01:26:02;17.53;;;1.53;;
71941;SDS011;59997;53.300;-6.260;2023-11-19T01:28:28;12.85;;;1.92;;
71941;SDS011;59997;53.300;-6.260;2023-11-19T01:30:53;13.37;;;1.30;;
71941;SDS011;59997;53.300;-6.260;2023-11-19T01:33:19;11.15;;;1.58;;
71941;SDS011;59997;53.300;-6.260;2023-11-19T01:35:44;15.87;;;1.50;;
71941;SDS011;59997;53.300;-6.260;2023-11-19T01:38:09;13.30;;;1.17;;
71941;SDS011;59997;53.300;-6.260;2023-11-19T01:40:35;19.02;;;1.67;;
71941;SDS011;59997;53.300;-6.260;2023-11-19T01:43:01;14.02;;;1.27;;
71941;SDS011;59997;53.300;-6.260;2023-11-19T01:45:28;10.17;;;1.13;;
71941;SDS011;59997;53.300;-6.260;2023-11-19T01:47:56;10.55;;;0.98;;
71941;SDS011;59997;53.300;-6.260;2023-11-19T01:50:22;9.27;;;1.20;;
71941;SDS011;59997;53.300;-6.260;2023-11-19T01:52:50;16.17;;;1.50;;
71941;SDS011;59997;53.300;-6.260;2023-11-19T01:55:17;13.48;;;1.50;;
71941;SDS011;59997;53.300;-6.260;2023-11-19T01:57:45;14.93;;;1.67;;
71941;SDS011;59997;53.300;-6.260;2023-11-19T02:00:12;12.77;;;1.23;;
71941;SDS011;59997;53.300;-6.260;2023-11-19T02:02:39;14.57;;;1.38;;
71941;SDS011;59997;53.300;-6.260;2023-11-19T02:05:06;12.27;;;2.13;;
71941;SDS011;59997;53.300;-6.260;2023-11-19T02:07:32;15.50;;;1.27;;
71941;SDS011;59997;53.300;-6.260;2023-11-19T02:09:57;15.33;;;1.47;;
71941;SDS011;59997;53.300;-6.260;2023-11-19T02:12:25;14.18;;;1.48;;
71941;SDS011;59997;53.300;-6.260;2023-11-19T02:14:53;11.07;;;1.60;;
71941;SDS011;59997;53.300;-6.260;2023-11-19T02:17:24;11.27;;;1.00;;
71941;SDS011;59997;53.300;-6.260;2023-11-19T02:19:57;13.88;;;1.60;;
71941;SDS011;59997;53.300;-6.260;2023-11-19T02:22:23;15.93;;;1.98;;
71941;SDS011;59997;53.300;-6.260;2023-11-19T02:24:49;9.68;;;1.05;;
71941;SDS011;59997;53.300;-6.260;2023-11-19T02:27:26;13.53;;;1.53;;
71941;SDS011;59997;53.300;-6.260;2023-11-19T02:30:15;11.75;;;1.05;;
71941;SDS011;59997;53.300;-6.260;2023-11-19T02:32:41;11.45;;;1.45;;
71941;SDS011;59997;53.300;-6.260;2023-11-19T02:35:07;11.50;;;1.50;;
71941;SDS011;59997;53.300;-6.260;2023-11-19T02:37:33;14.60;;;2.03;;
71941;SDS011;59997;53.300;-6.260;2023-11-19T02:39:59;13.57;;;1.33;;
71941;SDS011;59997;53.300;-6.260;2023-11-19T02:42:27;13.63;;;1.33;;
71941;SDS011;59997;53.300;-6.260;2023-11-19T02:44:53;15.75;;;1.33;;
71941;SDS011;59997;53.300;-6.260;2023-11-19T02:47:19;13.00;;;1.23;;
71941;SDS011;59997;53.300;-6.260;2023-11-19T02:49:46;10.30;;;1.02;;
71941;SDS011;59997;53.300;-6.260;2023-11-19T02:52:13;13.15;;;1.30;;
71941;SDS011;59997;53.300;-6.260;2023-11-19T02:54:39;13.77;;;1.60;;
71941;SDS011;59997;53.300;-6.260;2023-11-19T02:57:06;11.33;;;1.63;;
71941;SDS011;59997;53.300;-6.260;2023-11-19T02:59:33;15.32;;;1.83;;
71941;SDS011;59997;53.300;-6.260;2023-11-19T03:02:04;10.73;;;1.13;;
71941;SDS011;59997;53.300;-6.260;2023-11-19T03:04:32;13.02;;;1.52;;
71941;SDS011;59997;53.300;-6.260;2023-11-19T03:06:58;12.52;;;1.30;;
71941;SDS011;59997;53.300;-6.260;2023-11-19T03:09:24;14.87;;;1.77;;
71941;SDS011;59997;53.300;-6.260;2023-11-19T03:11:49;11.90;;;1.67;;
71941;SDS011;59997;53.300;-6.260;2023-11-19T03:14:15;13.38;;;1.25;;
71941;SDS011;59997;53.300;-6.260;2023-11-19T03:16:44;14.35;;;1.80;;
71941;SDS011;59997;53.300;-6.260;2023-11-19T03:19:11;10.10;;;1.63;;
71941;SDS011;59997;53.300;-6.260;2023-11-19T03:21:37;10.50;;;1.40;;
71941;SDS011;59997;53.300;-6.260;2023-11-19T03:24:02;12.13;;;1.40;;
71941;SDS011;59997;53.300;-6.260;2023-11-19T03:26:28;13.95;;;1.40;;
71941;SDS011;59997;53.300;-6.260;2023-11-19T03:28:54;9.73;;;1.43;;
71941;SDS011;59997;53.300;-6.260;2023-11-19T03:31:21;11.38;;;1.45;;
71941;SDS011;59997;53.300;-6.260;2023-11-19T03:33:48;16.45;;;1.98;;
71941;SDS011;59997;53.300;-6.260;2023-11-19T03:36:13;15.47;;;1.57;;
71941;SDS011;59997;53.300;-6.260;2023-11-19T03:38:39;8.30;;;1.05;;
71941;SDS011;59997;53.300;-6.260;2023-11-19T03:41:14;10.93;;;1.52;;
71941;SDS011;59997;53.300;-6.260;2023-11-19T03:43:41;9.27;;;1.00;;
71941;SDS011;59997;53.300;-6.260;2023-11-19T03:46:17;12.80;;;1.45;;
71941;SDS011;59997;53.300;-6.260;2023-11-19T03:48:43;11.43;;;1.15;;
71941;SDS011;59997;53.300;-6.260;2023-11-19T03:51:08;8.10;;;0.90;;
71941;SDS011;59997;53.300;-6.260;2023-11-19T03:53:34;10.37;;;0.80;;
71941;SDS011;59997;53.300;-6.260;2023-11-19T03:56:00;9.50;;;1.10;;
71941;SDS011;59997;53.300;-6.260;2023-11-19T03:58:26;11.80;;;1.38;;
71941;SDS011;59997;53.300;-6.260;2023-11-19T04:00:51;13.17;;;1.10;;
71941;SDS011;59997;53.300;-6.260;2023-11-19T04:03:17;11.60;;;1.13;;
71941;SDS011;59997;53.300;-6.260;2023-11-19T04:05:44;7.10;;;1.00;;
71941;SDS011;59997;53.300;-6.260;2023-11-19T04:08:10;10.35;;;1.23;;
71941;SDS011;59997;53.300;-6.260;2023-11-19T04:10:35;6.53;;;0.70;;
71941;SDS011;59997;53.300;-6.260;2023-11-19T04:13:01;9.40;;;0.80;;
71941;SDS011;59997;53.300;-6.260;2023-11-19T04:15:26;8.40;;;0.97;;
71941;SDS011;59997;53.300;-6.260;2023-11-19T04:17:52;12.48;;;0.93;;
71941;SDS011;59997;53.300;-6.260;2023-11-19T04:20:17;16.30;;;1.30;;
71941;SDS011;59997;53.300;-6.260;2023-11-19T04:22:43;15.10;;;1.30;;
71941;SDS011;59997;53.300;-6.260;2023-11-19T04:25:08;9.80;;;1.23;;
71941;SDS011;59997;53.300;-6.260;2023-11-19T04:27:34;10.03;;;0.93;;
71941;SDS011;59997;53.300;-6.260;2023-11-19T04:29:59;7.07;;;1.00;;
71941;SDS011;59997;53.300;-6.260;2023-11-19T04:32:26;10.87;;;1.27;;
71941;SDS011;59997;53.300;-6.260;2023-11-19T04:34:52;7.18;;;0.82;;
71941;SDS011;59997;53.300;-6.260;2023-11-19T04:37:17;9.00;;;0.73;;
71941;SDS011;59997;53.300;-6.260;2023-11-19T04:39:46;8.63;;;0.80;;
71941;SDS011;59997;53.300;-6.260;2023-11-19T04:42:11;10.43;;;0.90;;
71941;SDS011;59997;53.300;-6.260;2023-11-19T04:44:37;7.75;;;0.80;;
71941;SDS011;59997;53.300;-6.260;2023-11-19T04:47:03;11.47;;;1.10;;
71941;SDS011;59997;53.300;-6.260;2023-11-19T04:49:28;7.95;;;1.13;;
71941;SDS011;59997;53.300;-6.260;2023-11-19T04:51:55;8.57;;;0.97;;
71941;SDS011;59997;53.300;-6.260;2023-11-19T04:54:21;8.23;;;0.70;;
71941;SDS011;59997;53.300;-6.260;2023-11-19T04:56:46;9.73;;;1.10;;
71941;SDS011;59997;53.300;-6.260;2023-11-19T04:59:12;11.95;;;0.80;;
71941;SDS011;59997;53.300;-6.260;2023-11-19T05:01:38;8.90;;;0.83;;
71941;SDS011;59997;53.300;-6.260;2023-11-19T05:04:03;9.90;;;1.17;;
71941;SDS011;59997;53.300;-6.260;2023-11-19T05:06:29;6.68;;;0.82;;
71941;SDS011;59997;53.300;-6.260;2023-11-19T05:08:56;8.20;;;0.83;;
71941;SDS011;59997;53.300;-6.260;2023-11-19T05:11:22;11.23;;;1.00;;
71941;SDS011;59997;53.300;-6.260;2023-11-19T05:13:48;6.70;;;0.75;;
71941;SDS011;59997;53.300;-6.260;2023-11-19T05:16:13;6.27;;;0.70;;
71941;SDS011;59997;53.300;-6.260;2023-11-19T05:18:42;12.68;;;1.10;;
71941;SDS011;59997;53.300;-6.260;2023-11-19T05:21:07;15.07;;;1.67;;
71941;SDS011;59997;53.300;-6.260;2023-11-19T05:23:33;6.20;;;0.90;;
71941;SDS011;59997;53.300;-6.260;2023-11-19T05:25:59;9.93;;;1.10;;
71941;SDS011;59997;53.300;-6.260;2023-11-19T05:28:25;11.48;;;0.90;;
71941;SDS011;59997;53.300;-6.260;2023-11-19T05:30:51;10.37;;;0.90;;
71941;SDS011;59997;53.300;-6.260;2023-11-19T05:33:16;6.03;;;0.73;;
71941;SDS011;59997;53.300;-6.260;2023-11-19T05:35:42;8.00;;;0.53;;
71941;SDS011;59997;53.300;-6.260;2023-11-19T05:38:07;5.85;;;0.60;;
71941;SDS011;59997;53.300;-6.260;2023-11-19T05:40:34;9.07;;;0.87;;
71941;SDS011;59997;53.300;-6.260;2023-11-19T05:43:00;10.45;;;0.80;;
71941;SDS011;59997;53.300;-6.260;2023-11-19T05:45:25;8.50;;;0.60;;
71941;SDS011;59997;53.300;-6.260;2023-11-19T05:47:51;6.68;;;0.50;;
71941;SDS011;59997;53.300;-6.260;2023-11-19T05:50:17;10.13;;;0.90;;
71941;SDS011;59997;53.300;-6.260;2023-11-19T05:52:43;8.80;;;0.47;;
71941;SDS011;59997;53.300;-6.260;2023-11-19T05:55:09;6.03;;;0.50;;
71941;SDS011;59997;53.300;-6.260;2023-11-19T05:57:35;5.50;;;0.30;;
71941;SDS011;59997;53.300;-6.260;2023-11-19T06:00:02;5.65;;;0.55;;
71941;SDS011;59997;53.300;-6.260;2023-11-19T06:02:32;6.30;;;0.70;;
71941;SDS011;59997;53.300;-6.260;2023-11-19T06:04:57;3.63;;;0.30;;
71941;SDS011;59997;53.300;-6.260;2023-11-19T06:07:23;5.40;;;0.43;;
71941;SDS011;59997;53.300;-6.260;2023-11-19T06:09:48;5.93;;;0.60;;
71941;SDS011;59997;53.300;-6.260;2023-11-19T06:12:14;9.25;;;0.75;;
71941;SDS011;59997;53.300;-6.260;2023-11-19T06:14:40;6.93;;;0.60;;
71941;SDS011;59997;53.300;-6.260;2023-11-19T06:17:06;3.78;;;0.50;;
71941;SDS011;59997;53.300;-6.260;2023-11-19T06:19:31;3.87;;;0.30;;
71941;SDS011;59997;53.300;-6.260;2023-11-19T06:21:57;6.00;;;0.57;;
71941;SDS011;59997;53.300;-6.260;2023-11-19T06:24:22;5.60;;;0.30;;
71941;SDS011;59997;53.300;-6.260;2023-11-19T06:26:47;4.63;;;0.37;;
71941;SDS011;59997;53.300;-6.260;2023-11-19T06:29:13;4.90;;;0.30;;
71941;SDS011;59997;53.300;-6.260;2023-11-19T06:31:43;4.35;;;0.30;;
71941;SDS011;59997;53.300;-6.260;2023-11-19T06:34:09;4.10;;;0.30;;
71941;SDS011;59997;53.300;-6.260;2023-11-19T06:36:35;4.90;;;0.40;;
71941;SDS011;59997;53.300;-6.260;2023-11-19T06:39:00;6.17;;;0.40;;
71941;SDS011;59997;53.300;-6.260;2023-11-19T06:41:26;6.15;;;0.45;;
71941;SDS011;59997;53.300;-6.260;2023-11-19T06:43:53;4.50;;;0.50;;
71941;SDS011;59997;53.300;-6.260;2023-11-19T06:46:19;8.53;;;0.60;;
71941;SDS011;59997;53.300;-6.260;2023-11-19T06:48:44;5.17;;;0.70;;
71941;SDS011;59997;53.300;-6.260;2023-11-19T06:51:11;6.63;;;0.65;;
71941;SDS011;59997;53.300;-6.260;2023-11-19T06:53:37;7.07;;;0.70;;
71941;SDS011;59997;53.300;-6.260;2023-11-19T06:56:02;7.03;;;0.73;;
71941;SDS011;59997;53.300;-6.260;2023-11-19T06:58:36;5.50;;;0.55;;
71941;SDS011;59997;53.300;-6.260;2023-11-19T07:01:01;7.50;;;0.93;;
71941;SDS011;59997;53.300;-6.260;2023-11-19T07:03:27;5.40;;;0.40;;
71941;SDS011;59997;53.300;-6.260;2023-11-19T07:05:52;9.03;;;0.60;;
71941;SDS011;59997;53.300;-6.260;2023-11-19T07:08:18;5.37;;;0.50;;
71941;SDS011;59997;53.300;-6.260;2023-11-19T07:10:43;5.10;;;0.90;;
71941;SDS011;59997;53.300;-6.260;2023-11-19T07:13:09;7.20;;;0.70;;
71941;SDS011;59997;53.300;-6.260;2023-11-19T07:15:34;6.15;;;0.68;;
71941;SDS011;59997;53.300;-6.260;2023-11-19T07:18:00;4.60;;;0.40;;
71941;SDS011;59997;53.300;-6.260;2023-11-19T07:20:26;6.45;;;0.47;;
71941;SDS011;59997;53.300;-6.260;2023-11-19T07:22:51;4.50;;;0.30;;
71941;SDS011;59997;53.300;-6.260;2023-11-19T07:25:17;4.05;;;0.57;;
71941;SDS011;59997;53.300;-6.260;2023-11-19T07:27:43;5.80;;;0.60;;
71941;SDS011;59997;53.300;-6.260;2023-11-19T07:30:08;3.30;;;0.37;;
71941;SDS011;59997;53.300;-6.260;2023-11-19T07:32:34;3.05;;;0.30;;
71941;SDS011;59997;53.300;-6.260;2023-11-19T07:34:59;3.47;;;0.27;;
71941;SDS011;59997;53.300;-6.260;2023-11-19T07:37:25;3.93;;;0.37;;
71941;SDS011;59997;53.300;-6.260;2023-11-19T07:39:51;8.27;;;0.50;;
71941;SDS011;59997;53.300;-6.260;2023-11-19T07:42:16;4.65;;;0.30;;
71941;SDS011;59997;53.300;-6.260;2023-11-19T07:44:43;3.83;;;0.30;;
71941;SDS011;59997;53.300;-6.260;2023-11-19T07:47:10;4.50;;;0.22;;
71941;SDS011;59997;53.300;-6.260;2023-11-19T07:49:36;7.90;;;0.90;;
71941;SDS011;59997;53.300;-6.260;2023-11-19T07:52:01;3.00;;;0.30;;
71941;SDS011;59997;53.300;-6.260;2023-11-19T07:54:28;2.88;;;0.20;;
71941;SDS011;59997;53.300;-6.260;2023-11-19T07:56:54;3.67;;;0.30;;
71941;SDS011;59997;53.300;-6.260;2023-11-19T07:59:19;2.55;;;0.20;;
71941;SDS011;59997;53.300;-6.260;2023-11-19T08:01:44;4.33;;;0.60;;
71941;SDS011;59997;53.300;-6.260;2023-11-19T08:04:10;2.67;;;0.30;;
71941;SDS011;59997;53.300;-6.260;2023-11-19T08:06:36;2.80;;;0.20;;
71941;SDS011;59997;53.300;-6.260;2023-11-19T08:09:01;4.20;;;0.60;;
71941;SDS011;59997;53.300;-6.260;2023-11-19T08:11:27;4.43;;;0.22;;
71941;SDS011;59997;53.300;-6.260;2023-11-19T08:13:52;3.43;;;0.40;;
71941;SDS011;59997;53.300;-6.260;2023-11-19T08:16:18;3.27;;;0.20;;
71941;SDS011;59997;53.300;-6.260;2023-11-19T08:18:43;1.97;;;0.20;;
71941;SDS011;59997;53.300;-6.260;2023-11-19T08:21:09;5.07;;;0.45;;
71941;SDS011;59997;53.300;-6.260;2023-11-19T08:23:35;3.27;;;0.30;;
71941;SDS011;59997;53.300;-6.260;2023-11-19T08:26:01;4.20;;;0.30;;
71941;SDS011;59997;53.300;-6.260;2023-11-19T08:28:27;4.63;;;0.30;;
71941;SDS011;59997;53.300;-6.260;2023-11-19T08:30:52;4.25;;;0.40;;
71941;SDS011;59997;53.300;-6.260;2023-11-19T08:33:18;3.17;;;0.50;;
71941;SDS011;59997;53.300;-6.260;2023-11-19T08:35:43;3.67;;;0.33;;
71941;SDS011;59997;53.300;-6.260;2023-11-19T08:38:10;2.88;;;0.30;;
71941;SDS011;59997;53.300;-6.260;2023-11-19T08:40:35;3.13;;;0.28;;
71941;SDS011;59997;53.300;-6.260;2023-11-19T08:43:01;1.13;;;0.20;;
71941;SDS011;59997;53.300;-6.260;2023-11-19T08:45:26;1.90;;;0.20;;
71941;SDS011;59997;53.300;-6.260;2023-11-19T08:47:52;3.40;;;0.20;;
71941;SDS011;59997;53.300;-6.260;2023-11-19T08:50:17;4.55;;;0.20;;
71941;SDS011;59997;53.300;-6.260;2023-11-19T08:52:42;3.13;;;0.30;;
71941;SDS011;59997;53.300;-6.260;2023-11-19T08:55:08;1.80;;;0.20;;
71941;SDS011;59997;53.300;-6.260;2023-11-19T08:57:34;2.28;;;0.28;;
71941;SDS011;59997;53.300;-6.260;2023-11-19T09:00:00;2.20;;;0.20;;
71941;SDS011;59997;53.300;-6.260;2023-11-19T09:02:26;2.00;;;0.23;;
71941;SDS011;59997;53.300;-6.260;2023-11-19T09:04:51;2.53;;;0.20;;
71941;SDS011;59997;53.300;-6.260;2023-11-19T09:07:17;2.63;;;0.20;;
71941;SDS011;59997;53.300;-6.260;2023-11-19T09:09:42;1.60;;;0.20;;
71941;SDS011;59997;53.300;-6.260;2023-11-19T09:12:08;1.87;;;0.20;;
71941;SDS011;59997;53.300;-6.260;2023-11-19T09:14:33;2.37;;;0.30;;
71941;SDS011;59997;53.300;-6.260;2023-11-19T09:16:59;1.07;;;0.10;;
71941;SDS011;59997;53.300;-6.260;2023-11-19T09:19:25;1.93;;;0.20;;
71941;SDS011;59997;53.300;-6.260;2023-11-19T09:21:54;2.70;;;0.20;;
71941;SDS011;59997;53.300;-6.260;2023-11-19T09:24:19;1.23;;;0.10;;
71941;SDS011;59997;53.300;-6.260;2023-11-19T09:26:45;1.65;;;0.20;;
71941;SDS011;59997;53.300;-6.260;2023-11-19T09:29:11;2.30;;;0.20;;
71941;SDS011;59997;53.300;-6.260;2023-11-19T09:31:40;4.07;;;0.40;;
71941;SDS011;59997;53.300;-6.260;2023-11-19T09:34:06;3.10;;;0.20;;
71941;SDS011;59997;53.300;-6.260;2023-11-19T09:36:33;1.85;;;0.20;;
71941;SDS011;59997;53.300;-6.260;2023-11-19T09:38:58;1.50;;;0.20;;
71941;SDS011;59997;53.300;-6.260;2023-11-19T09:41:25;1.77;;;0.28;;
71941;SDS011;59997;53.300;-6.260;2023-11-19T09:43:53;3.17;;;0.40;;
71941;SDS011;59997;53.300;-6.260;2023-11-19T09:46:18;4.47;;;0.77;;
71941;SDS011;59997;53.300;-6.260;2023-11-19T09:48:44;5.50;;;1.00;;
71941;SDS011;59997;53.300;-6.260;2023-11-19T09:51:10;5.78;;;0.80;;
71941;SDS011;59997;53.300;-6.260;2023-11-19T09:53:37;3.70;;;0.50;;
71941;SDS011;59997;53.300;-6.260;2023-11-19T09:56:06;2.70;;;0.20;;
71941;SDS011;59997;53.300;-6.260;2023-11-19T09:58:33;3.20;;;0.32;;
71941;SDS011;59997;53.300;-6.260;2023-11-19T10:00:59;2.38;;;0.20;;
71941;SDS011;59997;53.300;-6.260;2023-11-19T10:03:34;2.33;;;0.30;;
71941;SDS011;59997;53.300;-6.260;2023-11-19T10:06:03;3.03;;;0.30;;
71941;SDS011;59997;53.300;-6.260;2023-11-19T10:08:29;2.43;;;0.20;;
71941;SDS011;59997;53.300;-6.260;2023-11-19T10:10:55;2.78;;;0.30;;
71941;SDS011;59997;53.300;-6.260;2023-11-19T10:13:28;5.00;;;0.43;;
71941;SDS011;59997;53.300;-6.260;2023-11-19T10:15:55;2.60;;;0.30;;
71941;SDS011;59997;53.300;-6.260;2023-11-19T10:18:27;3.85;;;0.63;;
71941;SDS011;59997;53.300;-6.260;2023-11-19T10:20:52;4.65;;;0.50;;
71941;SDS011;59997;53.300;-6.260;2023-11-19T10:23:18;4.38;;;0.50;;
71941;SDS011;59997;53.300;-6.260;2023-11-19T10:25:44;4.73;;;0.60;;
71941;SDS011;59997;53.300;-6.260;2023-11-19T10:28:10;4.97;;;0.57;;
71941;SDS011;59997;53.300;-6.260;2023-11-19T10:30:35;3.73;;;0.37;;
71941;SDS011;59997;53.300;-6.260;2023-11-19T10:33:11;3.20;;;0.30;;
71941;SDS011;59997;53.300;-6.260;2023-11-19T10:35:55;4.18;;;0.50;;
71941;SDS011;59997;53.300;-6.260;2023-11-19T10:38:24;3.08;;;0.40;;
71941;SDS011;59997;53.300;-6.260;2023-11-19T10:40:51;2.70;;;0.30;;
71941;SDS011;59997;53.300;-6.260;2023-11-19T10:43:18;4.00;;;0.35;;
71941;SDS011;59997;53.300;-6.260;2023-11-19T10:45:44;6.07;;;0.50;;
71941;SDS011;59997;53.300;-6.260;2023-11-19T10:48:10;3.78;;;0.30;;
71941;SDS011;59997;53.300;-6.260;2023-11-19T10:50:37;2.13;;;0.22;;
71941;SDS011;59997;53.300;-6.260;2023-11-19T10:53:05;4.63;;;0.30;;
71941;SDS011;59997;53.300;-6.260;2023-11-19T10:55:32;3.45;;;0.30;;
71941;SDS011;59997;53.300;-6.260;2023-11-19T10:58:03;4.15;;;0.30;;
71941;SDS011;59997;53.300;-6.260;2023-11-19T11:00:39;1.95;;;0.20;;
71941;SDS011;59997;53.300;-6.260;2023-11-19T11:03:11;2.90;;;0.30;;
71941;SDS011;59997;53.300;-6.260;2023-11-19T11:05:41;3.33;;;0.30;;
71941;SDS011;59997;53.300;-6.260;2023-11-19T11:08:07;4.10;;;0.43;;
71941;SDS011;59997;53.300;-6.260;2023-11-19T11:10:35;2.63;;;0.25;;
71941;SDS011;59997;53.300;-6.260;2023-11-19T11:13:04;2.90;;;0.28;;
71941;SDS011;59997;53.300;-6.260;2023-11-19T11:15:31;3.40;;;0.40;;
71941;SDS011;59997;53.300;-6.260;2023-11-19T11:18:00;3.00;;;0.20;;
71941;SDS011;59997;53.300;-6.260;2023-11-19T11:20:28;3.90;;;0.50;;
71941;SDS011;59997;53.300;-6.260;2023-11-19T11:23:16;2.58;;;0.40;;
71941;SDS011;59997;53.300;-6.260;2023-11-19T11:31:45;2.63;;;0.40;;
71941;SDS011;59997;53.300;-6.260;2023-11-19T11:37:06;3.50;;;0.40;;
71941;SDS011;59997;53.300;-6.260;2023-11-19T11:39:33;2.53;;;0.40;;
71941;SDS011;59997;53.300;-6.260;2023-11-19T11:55:27;5.20;;;0.40;;
71941;SDS011;59997;53.300;-6.260;2023-11-19T11:58:26;3.22;;;0.32;;
71941;SDS011;59997;53.300;-6.260;2023-11-19T12:00:57;1.98;;;0.30;;
71941;SDS011;59997;53.300;-6.260;2023-11-19T12:03:26;3.63;;;0.40;;
71941;SDS011;59997;53.300;-6.260;2023-11-19T12:05:52;4.78;;;0.85;;
71941;SDS011;59997;53.300;-6.260;2023-11-19T12:08:19;4.50;;;0.93;;
71941;SDS011;59997;53.300;-6.260;2023-11-19T12:10:51;3.13;;;0.30;;
71941;SDS011;59997;53.300;-6.260;2023-11-19T12:13:17;4.15;;;0.40;;
71941;SDS011;59997;53.300;-6.260;2023-11-19T12:18:26;3.72;;;0.40;;
71941;SDS011;59997;53.300;-6.260;2023-11-19T12:20:52;3.40;;;0.60;;
71941;SDS011;59997;53.300;-6.260;2023-11-19T12:23:18;3.03;;;0.73;;
71941;SDS011;59997;53.300;-6.260;2023-11-19T12:25:43;3.17;;;0.50;;
71941;SDS011;59997;53.300;-6.260;2023-11-19T12:28:17;3.05;;;0.40;;
71941;SDS011;59997;53.300;-6.260;2023-11-19T12:30:42;2.80;;;0.40;;
71941;SDS011;59997;53.300;-6.260;2023-11-19T12:33:12;3.92;;;0.40;;
71941;SDS011;59997;53.300;-6.260;2023-11-19T12:38:20;4.13;;;0.80;;
71941;SDS011;59997;53.300;-6.260;2023-11-19T12:40:47;3.80;;;0.57;;
71941;SDS011;59997;53.300;-6.260;2023-11-19T12:43:22;3.42;;;0.40;;
71941;SDS011;59997;53.300;-6.260;2023-11-19T12:45:47;5.13;;;1.60;;
71941;SDS011;59997;53.300;-6.260;2023-11-19T12:48:13;6.60;;;0.60;;
71941;SDS011;59997;53.300;-6.260;2023-11-19T12:50:52;8.57;;;2.15;;
71941;SDS011;59997;53.300;-6.260;2023-11-19T12:53:22;8.73;;;1.70;;
71941;SDS011;59997;53.300;-6.260;2023-11-19T12:55:49;7.45;;;2.33;;
71941;SDS011;59997;53.300;-6.260;2023-11-19T12:58:28;6.90;;;1.40;;
71941;SDS011;59997;53.300;-6.260;2023-11-19T13:01:03;17.05;;;5.55;;
71941;SDS011;59997;53.300;-6.260;2023-11-19T13:03:37;12.27;;;2.40;;
71941;SDS011;59997;53.300;-6.260;2023-11-19T13:06:06;9.97;;;1.90;;
71941;SDS011;59997;53.300;-6.260;2023-11-19T13:08:36;15.32;;;3.33;;
71941;SDS011;59997;53.300;-6.260;2023-11-19T13:11:03;10.10;;;2.92;;
71941;SDS011;59997;53.300;-6.260;2023-11-19T13:13:29;28.58;;;5.65;;
71941;SDS011;59997;53.300;-6.260;2023-11-19T13:16:04;13.47;;;2.53;;
71941;SDS011;59997;53.300;-6.260;2023-11-19T13:18:34;16.13;;;3.97;;
71941;SDS011;59997;53.300;-6.260;2023-11-19T13:21:00;12.65;;;2.22;;
71941;SDS011;59997;53.300;-6.260;2023-11-19T13:23:25;16.47;;;4.37;;
71941;SDS011;59997;53.300;-6.260;2023-11-19T13:25:51;17.63;;;2.60;;
71941;SDS011;59997;53.300;-6.260;2023-11-19T13:28:17;13.25;;;2.60;;
71941;SDS011;59997;53.300;-6.260;2023-11-19T13:30:42;16.67;;;4.97;;
71941;SDS011;59997;53.300;-6.260;2023-11-19T13:33:08;14.68;;;3.42;;
71941;SDS011;59997;53.300;-6.260;2023-11-19T13:35:37;13.75;;;2.03;;
71941;SDS011;59997;53.300;-6.260;2023-11-19T13:38:05;12.77;;;2.53;;
71941;SDS011;59997;53.300;-6.260;2023-11-19T13:40:30;15.60;;;2.78;;
71941;SDS011;59997;53.300;-6.260;2023-11-19T13:42:56;11.53;;;1.30;;
71941;SDS011;59997;53.300;-6.260;2023-11-19T13:45:21;12.77;;;1.70;;
71941;SDS011;59997;53.300;-6.260;2023-11-19T13:47:47;12.63;;;1.58;;
71941;SDS011;59997;53.300;-6.260;2023-11-19T13:50:13;12.23;;;1.77;;
71941;SDS011;59997;53.300;-6.260;2023-11-19T13:52:43;12.70;;;1.38;;
71941;SDS011;59997;53.300;-6.260;2023-11-19T13:55:11;10.18;;;1.92;;
71941;SDS011;59997;53.300;-6.260;2023-11-19T13:57:38;9.95;;;1.50;;
71941;SDS011;59997;53.300;-6.260;2023-11-19T14:00:04;10.40;;;1.93;;
71941;SDS011;59997;53.300;-6.260;2023-11-19T14:02:44;12.40;;;1.75;;
71941;SDS011;59997;53.300;-6.260;2023-11-19T14:05:11;10.85;;;1.88;;
71941;SDS011;59997;53.300;-6.260;2023-11-19T14:07:38;9.75;;;1.48;;
71941;SDS011;59997;53.300;-6.260;2023-11-19T14:10:04;11.50;;;1.83;;
71941;SDS011;59997;53.300;-6.260;2023-11-19T14:12:31;10.83;;;1.70;;
71941;SDS011;59997;53.300;-6.260;2023-11-19T14:14:57;14.65;;;1.90;;
71941;SDS011;59997;53.300;-6.260;2023-11-19T14:17:23;12.30;;;1.60;;
71941;SDS011;59997;53.300;-6.260;2023-11-19T14:19:50;10.55;;;1.17;;
71941;SDS011;59997;53.300;-6.260;2023-11-19T14:22:16;10.60;;;2.20;;
71941;SDS011;59997;53.300;-6.260;2023-11-19T14:24:41;11.10;;;1.70;;
71941;SDS011;59997;53.300;-6.260;2023-11-19T14:27:08;12.45;;;2.05;;
71941;SDS011;59997;53.300;-6.260;2023-11-19T14:29:34;12.15;;;1.88;;
71941;SDS011;59997;53.300;-6.260;2023-11-19T14:32:01;12.05;;;1.63;;
71941;SDS011;59997;53.300;-6.260;2023-11-19T14:34:27;14.63;;;1.30;;
71941;SDS011;59997;53.300;-6.260;2023-11-19T14:36:56;9.93;;;1.60;;
71941;SDS011;59997;53.300;-6.260;2023-11-19T14:39:22;10.27;;;1.20;;
71941;SDS011;59997;53.300;-6.260;2023-11-19T14:41:47;13.53;;;1.27;;
71941;SDS011;59997;53.300;-6.260;2023-11-19T14:44:14;9.60;;;1.50;;
71941;SDS011;59997;53.300;-6.260;2023-11-19T14:46:40;12.30;;;1.70;;
71941;SDS011;59997;53.300;-6.260;2023-11-19T14:49:05;13.57;;;1.70;;
71941;SDS011;59997;53.300;-6.260;2023-11-19T14:51:35;10.00;;;1.42;;
71941;SDS011;59997;53.300;-6.260;2023-11-19T14:54:01;11.45;;;1.13;;